sensor_id;sensor_type;location;lat;lon;timestamp;temperature;humidity
68804;SHT31;55787;52.678;13.314;2022-11-15T00:00:55;3.64;99.99
68804;SHT31;55787;52.678;13.314;2022-11-15T00:03:24;3.73;99.99
68804;SHT31;55787;52.678;13.314;2022-11-15T00:05:51;3.71;99.99
68804;SHT31;55787;52.678;13.314;2022-11-15T00:08:18;3.73;99.99
68804;SHT31;55787;52.678;13.314;2022-11-15T00:10:58;3.73;99.99
68804;SHT31;55787;52.678;13.314;2022-11-15T00:13:26;3.75;99.99
68804;SHT31;55787;52.678;13.314;2022-11-15T00:15:57;3.82;99.99
68804;SHT31;55787;52.678;13.314;2022-11-15T00:18:25;3.80;99.99
68804;SHT31;55787;52.678;13.314;2022-11-15T00:20:51;3.74;99.99
68804;SHT31;55787;52.678;13.314;2022-11-15T00:23:18;3.70;99.99
68804;SHT31;55787;52.678;13.314;2022-11-15T00:25:45;3.80;99.99
68804;SHT31;55787;52.678;13.314;2022-11-15T00:28:11;3.81;99.99
68804;SHT31;55787;52.678;13.314;2022-11-15T00:30:38;3.78;99.99
68804;SHT31;55787;52.678;13.314;2022-11-15T00:33:06;3.77;99.99
68804;SHT31;55787;52.678;13.314;2022-11-15T00:35:33;3.71;99.99
68804;SHT31;55787;52.678;13.314;2022-11-15T00:38:01;3.73;99.99
68804;SHT31;55787;52.678;13.314;2022-11-15T00:40:28;3.66;99.99
68804;SHT31;55787;52.678;13.314;2022-11-15T00:42:55;3.69;99.99
68804;SHT31;55787;52.678;13.314;2022-11-15T00:45:22;3.67;99.99
68804;SHT31;55787;52.678;13.314;2022-11-15T00:47:49;3.71;99.99
68804;SHT31;55787;52.678;13.314;2022-11-15T00:50:16;3.66;99.99
68804;SHT31;55787;52.678;13.314;2022-11-15T00:52:43;3.57;99.99
68804;SHT31;55787;52.678;13.314;2022-11-15T00:55:15;3.49;99.99
68804;SHT31;55787;52.678;13.314;2022-11-15T00:57:41;3.49;99.99
68804;SHT31;55787;52.678;13.314;2022-11-15T01:00:09;3.43;99.99
68804;SHT31;55787;52.678;13.314;2022-11-15T01:02:35;3.40;99.99
68804;SHT31;55787;52.678;13.314;2022-11-15T01:05:02;3.29;99.99
68804;SHT31;55787;52.678;13.314;2022-11-15T01:07:29;3.24;99.99
68804;SHT31;55787;52.678;13.314;2022-11-15T01:09:56;3.20;99.99
68804;SHT31;55787;52.678;13.314;2022-11-15T01:12:22;3.19;99.99
68804;SHT31;55787;52.678;13.314;2022-11-15T01:14:49;3.32;99.99
68804;SHT31;55787;52.678;13.314;2022-11-15T01:17:16;3.34;99.99
68804;SHT31;55787;52.678;13.314;2022-11-15T01:19:42;3.30;99.99
68804;SHT31;55787;52.678;13.314;2022-11-15T01:22:09;3.29;99.99
68804;SHT31;55787;52.678;13.314;2022-11-15T01:24:36;3.27;99.99
68804;SHT31;55787;52.678;13.314;2022-11-15T01:27:03;3.30;99.99
68804;SHT31;55787;52.678;13.314;2022-11-15T01:29:29;3.24;99.99
68804;SHT31;55787;52.678;13.314;2022-11-15T01:31:56;3.18;99.99
68804;SHT31;55787;52.678;13.314;2022-11-15T01:34:22;3.29;99.99
68804;SHT31;55787;52.678;13.314;2022-11-15T01:36:49;3.32;99.99
68804;SHT31;55787;52.678;13.314;2022-11-15T01:39:16;3.39;99.99
68804;SHT31;55787;52.678;13.314;2022-11-15T01:41:43;3.33;99.99
68804;SHT31;55787;52.678;13.314;2022-11-15T01:46:55;3.29;99.99
68804;SHT31;55787;52.678;13.314;2022-11-15T01:49:23;3.20;99.99
68804;SHT31;55787;52.678;13.314;2022-11-15T01:51:51;3.12;99.99
68804;SHT31;55787;52.678;13.314;2022-11-15T01:54:20;3.09;99.99
68804;SHT31;55787;52.678;13.314;2022-11-15T01:56:57;3.15;99.99
68804;SHT31;55787;52.678;13.314;2022-11-15T01:59:25;3.26;99.99
68804;SHT31;55787;52.678;13.314;2022-11-15T02:01:52;3.34;99.99
68804;SHT31;55787;52.678;13.314;2022-11-15T02:04:24;3.30;99.99
68804;SHT31;55787;52.678;13.314;2022-11-15T02:06:51;3.23;99.99
68804;SHT31;55787;52.678;13.314;2022-11-15T02:09:18;3.24;99.99
68804;SHT31;55787;52.678;13.314;2022-11-15T02:11:46;3.29;99.99
68804;SHT31;55787;52.678;13.314;2022-11-15T02:14:16;3.19;99.99
68804;SHT31;55787;52.678;13.314;2022-11-15T02:16:50;3.09;99.99
68804;SHT31;55787;52.678;13.314;2022-11-15T02:28:16;3.01;99.99
68804;SHT31;55787;52.678;13.314;2022-11-15T02:36:06;2.84;99.99
68804;SHT31;55787;52.678;13.314;2022-11-15T02:38:59;2.79;99.99
68804;SHT31;55787;52.678;13.314;2022-11-15T02:44:13;2.88;99.99
68804;SHT31;55787;52.678;13.314;2022-11-15T02:49:36;3.06;99.99
68804;SHT31;55787;52.678;13.314;2022-11-15T02:52:04;3.03;99.99
68804;SHT31;55787;52.678;13.314;2022-11-15T02:54:32;2.98;99.99
68804;SHT31;55787;52.678;13.314;2022-11-15T02:57:05;2.88;99.99
68804;SHT31;55787;52.678;13.314;2022-11-15T03:04:56;2.81;99.99
68804;SHT31;55787;52.678;13.314;2022-11-15T03:07:54;2.74;99.99
68804;SHT31;55787;52.678;13.314;2022-11-15T03:10:51;2.64;99.99
68804;SHT31;55787;52.678;13.314;2022-11-15T03:13:49;2.58;99.99
68804;SHT31;55787;52.678;13.314;2022-11-15T03:21:48;2.61;99.99
68804;SHT31;55787;52.678;13.314;2022-11-15T03:24:17;2.58;99.99
68804;SHT31;55787;52.678;13.314;2022-11-15T03:26:53;2.60;99.99
68804;SHT31;55787;52.678;13.314;2022-11-15T03:29:24;2.60;99.99
68804;SHT31;55787;52.678;13.314;2022-11-15T03:32:00;2.60;99.99
68804;SHT31;55787;52.678;13.314;2022-11-15T03:37:01;2.58;99.99
68804;SHT31;55787;52.678;13.314;2022-11-15T03:39:28;2.58;99.99
68804;SHT31;55787;52.678;13.314;2022-11-15T03:44:58;2.52;99.99
68804;SHT31;55787;52.678;13.314;2022-11-15T03:47:57;2.54;99.99
68804;SHT31;55787;52.678;13.314;2022-11-15T03:50:25;2.50;99.99
68804;SHT31;55787;52.678;13.314;2022-11-15T03:52:54;2.47;99.99
68804;SHT31;55787;52.678;13.314;2022-11-15T03:55:21;2.42;99.99
68804;SHT31;55787;52.678;13.314;2022-11-15T03:57:51;2.45;99.99
68804;SHT31;55787;52.678;13.314;2022-11-15T04:00:19;2.62;99.99
68804;SHT31;55787;52.678;13.314;2022-11-15T04:02:47;2.72;99.99
68804;SHT31;55787;52.678;13.314;2022-11-15T04:05:13;2.70;99.99
68804;SHT31;55787;52.678;13.314;2022-11-15T04:07:40;2.64;99.99
68804;SHT31;55787;52.678;13.314;2022-11-15T04:10:09;2.61;99.99
68804;SHT31;55787;52.678;13.314;2022-11-15T04:12:38;2.54;99.99
68804;SHT31;55787;52.678;13.314;2022-11-15T04:15:09;2.51;99.99
68804;SHT31;55787;52.678;13.314;2022-11-15T04:17:40;2.47;99.99
68804;SHT31;55787;52.678;13.314;2022-11-15T04:23:03;2.37;99.99
68804;SHT31;55787;52.678;13.314;2022-11-15T04:25:53;2.36;99.99
68804;SHT31;55787;52.678;13.314;2022-11-15T04:28:20;2.36;99.99
68804;SHT31;55787;52.678;13.314;2022-11-15T04:30:46;2.31;99.99
68804;SHT31;55787;52.678;13.314;2022-11-15T04:33:15;2.33;99.99
68804;SHT31;55787;52.678;13.314;2022-11-15T04:35:42;2.33;99.99
68804;SHT31;55787;52.678;13.314;2022-11-15T04:38:10;2.33;99.99
68804;SHT31;55787;52.678;13.314;2022-11-15T04:40:37;2.24;99.99
68804;SHT31;55787;52.678;13.314;2022-11-15T04:43:04;2.24;99.99
68804;SHT31;55787;52.678;13.314;2022-11-15T04:45:31;2.23;99.99
68804;SHT31;55787;52.678;13.314;2022-11-15T04:47:58;2.33;99.99
68804;SHT31;55787;52.678;13.314;2022-11-15T04:50:25;2.34;99.99
68804;SHT31;55787;52.678;13.314;2022-11-15T04:52:53;2.30;99.99
68804;SHT31;55787;52.678;13.314;2022-11-15T04:55:20;2.29;99.99
68804;SHT31;55787;52.678;13.314;2022-11-15T04:57:47;2.31;99.99
68804;SHT31;55787;52.678;13.314;2022-11-15T05:00:16;2.36;99.99
68804;SHT31;55787;52.678;13.314;2022-11-15T05:02:43;2.37;99.99
68804;SHT31;55787;52.678;13.314;2022-11-15T05:05:28;2.36;99.99
68804;SHT31;55787;52.678;13.314;2022-11-15T05:07:55;2.34;99.99
68804;SHT31;55787;52.678;13.314;2022-11-15T05:10:22;2.34;99.99
68804;SHT31;55787;52.678;13.314;2022-11-15T05:12:49;2.31;99.99
68804;SHT31;55787;52.678;13.314;2022-11-15T05:15:15;2.30;99.99
68804;SHT31;55787;52.678;13.314;2022-11-15T05:17:42;2.36;99.99
68804;SHT31;55787;52.678;13.314;2022-11-15T05:20:09;2.38;99.99
68804;SHT31;55787;52.678;13.314;2022-11-15T05:22:36;2.45;99.99
68804;SHT31;55787;52.678;13.314;2022-11-15T05:25:03;2.44;99.99
68804;SHT31;55787;52.678;13.314;2022-11-15T05:27:30;2.41;99.99
68804;SHT31;55787;52.678;13.314;2022-11-15T05:29:56;2.38;99.99
68804;SHT31;55787;52.678;13.314;2022-11-15T05:32:23;2.34;99.99
68804;SHT31;55787;52.678;13.314;2022-11-15T05:34:50;2.37;99.99
68804;SHT31;55787;52.678;13.314;2022-11-15T05:37:17;2.37;99.99
68804;SHT31;55787;52.678;13.314;2022-11-15T05:39:44;2.37;99.99
68804;SHT31;55787;52.678;13.314;2022-11-15T05:42:13;2.40;99.99
68804;SHT31;55787;52.678;13.314;2022-11-15T05:44:44;2.41;99.99
68804;SHT31;55787;52.678;13.314;2022-11-15T05:47:18;2.41;99.99
68804;SHT31;55787;52.678;13.314;2022-11-15T05:49:48;2.37;99.99
68804;SHT31;55787;52.678;13.314;2022-11-15T05:52:20;2.37;99.99
68804;SHT31;55787;52.678;13.314;2022-11-15T05:54:49;2.38;99.99
68804;SHT31;55787;52.678;13.314;2022-11-15T05:57:16;2.33;99.99
68804;SHT31;55787;52.678;13.314;2022-11-15T05:59:43;2.26;99.99
68804;SHT31;55787;52.678;13.314;2022-11-15T06:02:10;2.21;99.99
68804;SHT31;55787;52.678;13.314;2022-11-15T06:04:37;2.19;99.99
68804;SHT31;55787;52.678;13.314;2022-11-15T06:07:04;2.17;99.99
68804;SHT31;55787;52.678;13.314;2022-11-15T06:09:31;2.20;99.99
68804;SHT31;55787;52.678;13.314;2022-11-15T06:11:57;2.17;99.99
68804;SHT31;55787;52.678;13.314;2022-11-15T06:14:24;2.17;99.99
68804;SHT31;55787;52.678;13.314;2022-11-15T06:16:51;2.16;99.99
68804;SHT31;55787;52.678;13.314;2022-11-15T06:19:17;2.14;99.99
68804;SHT31;55787;52.678;13.314;2022-11-15T06:21:44;2.11;99.99
68804;SHT31;55787;52.678;13.314;2022-11-15T06:24:11;2.17;99.99
68804;SHT31;55787;52.678;13.314;2022-11-15T06:26:37;2.17;99.99
68804;SHT31;55787;52.678;13.314;2022-11-15T06:29:04;2.17;99.99
68804;SHT31;55787;52.678;13.314;2022-11-15T06:31:31;2.16;99.99
68804;SHT31;55787;52.678;13.314;2022-11-15T06:33:57;2.14;99.99
68804;SHT31;55787;52.678;13.314;2022-11-15T06:36:24;2.11;99.99
68804;SHT31;55787;52.678;13.314;2022-11-15T06:38:51;2.11;99.99
68804;SHT31;55787;52.678;13.314;2022-11-15T06:41:18;2.14;99.99
68804;SHT31;55787;52.678;13.314;2022-11-15T06:43:44;2.16;99.99
68804;SHT31;55787;52.678;13.314;2022-11-15T06:46:11;2.23;99.99
68804;SHT31;55787;52.678;13.314;2022-11-15T06:48:37;2.24;99.99
68804;SHT31;55787;52.678;13.314;2022-11-15T06:51:04;2.31;99.99
68804;SHT31;55787;52.678;13.314;2022-11-15T06:53:32;2.37;99.99
68804;SHT31;55787;52.678;13.314;2022-11-15T06:56:06;2.44;99.99
68804;SHT31;55787;52.678;13.314;2022-11-15T06:58:33;2.41;99.99
68804;SHT31;55787;52.678;13.314;2022-11-15T07:01:04;2.44;99.99
68804;SHT31;55787;52.678;13.314;2022-11-15T07:03:34;2.50;99.99
68804;SHT31;55787;52.678;13.314;2022-11-15T07:06:01;2.55;99.99
68804;SHT31;55787;52.678;13.314;2022-11-15T07:08:33;2.68;99.99
68804;SHT31;55787;52.678;13.314;2022-11-15T07:11:02;2.71;99.99
68804;SHT31;55787;52.678;13.314;2022-11-15T07:13:31;2.75;99.99
68804;SHT31;55787;52.678;13.314;2022-11-15T07:16:06;2.84;99.99
68804;SHT31;55787;52.678;13.314;2022-11-15T07:18:35;2.89;99.99
68804;SHT31;55787;52.678;13.314;2022-11-15T07:21:03;2.95;99.99
68804;SHT31;55787;52.678;13.314;2022-11-15T07:23:30;3.03;99.99
68804;SHT31;55787;52.678;13.314;2022-11-15T07:25:58;3.06;99.99
68804;SHT31;55787;52.678;13.314;2022-11-15T07:28:25;3.06;99.99
68804;SHT31;55787;52.678;13.314;2022-11-15T07:30:53;3.18;99.99
68804;SHT31;55787;52.678;13.314;2022-11-15T07:33:20;3.27;99.99
68804;SHT31;55787;52.678;13.314;2022-11-15T07:35:47;3.37;99.99
68804;SHT31;55787;52.678;13.314;2022-11-15T07:38:17;3.44;99.99
68804;SHT31;55787;52.678;13.314;2022-11-15T07:40:47;3.53;99.99
68804;SHT31;55787;52.678;13.314;2022-11-15T07:43:13;3.67;99.99
68804;SHT31;55787;52.678;13.314;2022-11-15T07:45:44;3.75;99.99
68804;SHT31;55787;52.678;13.314;2022-11-15T07:48:11;3.85;99.99
68804;SHT31;55787;52.678;13.314;2022-11-15T07:50:41;3.97;99.99
68804;SHT31;55787;52.678;13.314;2022-11-15T07:53:09;4.03;99.99
68804;SHT31;55787;52.678;13.314;2022-11-15T07:55:37;4.11;99.99
68804;SHT31;55787;52.678;13.314;2022-11-15T07:58:07;4.23;99.99
68804;SHT31;55787;52.678;13.314;2022-11-15T08:00:35;4.28;99.99
68804;SHT31;55787;52.678;13.314;2022-11-15T08:03:10;4.42;99.99
68804;SHT31;55787;52.678;13.314;2022-11-15T08:05:39;4.42;99.99
68804;SHT31;55787;52.678;13.314;2022-11-15T08:08:07;4.45;99.99
68804;SHT31;55787;52.678;13.314;2022-11-15T08:10:34;4.49;99.99
68804;SHT31;55787;52.678;13.314;2022-11-15T08:13:08;4.59;99.99
68804;SHT31;55787;52.678;13.314;2022-11-15T08:15:36;4.67;99.99
68804;SHT31;55787;52.678;13.314;2022-11-15T08:18:05;4.80;99.99
68804;SHT31;55787;52.678;13.314;2022-11-15T08:20:32;4.93;99.99
68804;SHT31;55787;52.678;13.314;2022-11-15T08:23:01;5.00;99.99
68804;SHT31;55787;52.678;13.314;2022-11-15T08:25:30;5.05;99.99
68804;SHT31;55787;52.678;13.314;2022-11-15T08:28:00;5.08;99.99
68804;SHT31;55787;52.678;13.314;2022-11-15T08:30:27;5.14;99.99
68804;SHT31;55787;52.678;13.314;2022-11-15T08:32:56;5.17;99.99
68804;SHT31;55787;52.678;13.314;2022-11-15T08:35:24;5.21;99.99
68804;SHT31;55787;52.678;13.314;2022-11-15T08:37:54;5.25;99.99
68804;SHT31;55787;52.678;13.314;2022-11-15T08:40:21;5.35;99.99
68804;SHT31;55787;52.678;13.314;2022-11-15T08:42:49;5.46;99.99
68804;SHT31;55787;52.678;13.314;2022-11-15T08:45:16;5.59;99.99
68804;SHT31;55787;52.678;13.314;2022-11-15T08:47:44;5.66;99.99
68804;SHT31;55787;52.678;13.314;2022-11-15T08:50:18;5.73;99.99
68804;SHT31;55787;52.678;13.314;2022-11-15T08:52:45;5.83;99.99
68804;SHT31;55787;52.678;13.314;2022-11-15T08:55:11;5.92;99.99
68804;SHT31;55787;52.678;13.314;2022-11-15T08:57:38;5.97;99.99
68804;SHT31;55787;52.678;13.314;2022-11-15T09:00:06;6.10;99.71
68804;SHT31;55787;52.678;13.314;2022-11-15T09:02:32;6.24;99.73
68804;SHT31;55787;52.678;13.314;2022-11-15T09:04:59;6.55;98.99
68804;SHT31;55787;52.678;13.314;2022-11-15T09:07:25;6.88;98.03
68804;SHT31;55787;52.678;13.314;2022-11-15T09:09:52;7.26;96.83
68804;SHT31;55787;52.678;13.314;2022-11-15T09:12:19;7.46;95.56
68804;SHT31;55787;52.678;13.314;2022-11-15T09:14:45;7.65;95.73
68804;SHT31;55787;52.678;13.314;2022-11-15T09:17:12;8.10;93.88
68804;SHT31;55787;52.678;13.314;2022-11-15T09:19:39;8.50;92.37
68804;SHT31;55787;52.678;13.314;2022-11-15T09:22:06;8.64;90.95
68804;SHT31;55787;52.678;13.314;2022-11-15T09:24:34;8.36;90.89
68804;SHT31;55787;52.678;13.314;2022-11-15T09:27:02;8.26;91.86
68804;SHT31;55787;52.678;13.314;2022-11-15T09:29:29;8.21;92.46
68804;SHT31;55787;52.678;13.314;2022-11-15T09:31:55;8.29;91.75
68804;SHT31;55787;52.678;13.314;2022-11-15T09:34:22;8.30;91.34
68804;SHT31;55787;52.678;13.314;2022-11-15T09:36:49;9.60;90.58
68804;SHT31;55787;52.678;13.314;2022-11-15T09:39:15;11.33;84.36
68804;SHT31;55787;52.678;13.314;2022-11-15T09:49:53;11.92;78.43
68804;SHT31;55787;52.678;13.314;2022-11-15T09:52:23;12.18;76.65
68804;SHT31;55787;52.678;13.314;2022-11-15T09:54:52;12.32;77.54
68804;SHT31;55787;52.678;13.314;2022-11-15T10:00:20;11.24;78.41
68804;SHT31;55787;52.678;13.314;2022-11-15T10:03:09;10.79;80.58
68804;SHT31;55787;52.678;13.314;2022-11-15T10:05:45;10.58;83.39
68804;SHT31;55787;52.678;13.314;2022-11-15T10:11:09;10.46;84.03
68804;SHT31;55787;52.678;13.314;2022-11-15T10:14:01;10.37;83.91
68804;SHT31;55787;52.678;13.314;2022-11-15T10:16:32;10.31;84.37
68804;SHT31;55787;52.678;13.314;2022-11-15T10:22:12;10.31;85.13
68804;SHT31;55787;52.678;13.314;2022-11-15T10:24:44;10.32;84.59
68804;SHT31;55787;52.678;13.314;2022-11-15T10:27:17;10.25;85.85
68804;SHT31;55787;52.678;13.314;2022-11-15T10:29:46;10.44;84.63
68804;SHT31;55787;52.678;13.314;2022-11-15T10:32:15;10.51;84.62
68804;SHT31;55787;52.678;13.314;2022-11-15T10:34:42;10.46;84.96
68804;SHT31;55787;52.678;13.314;2022-11-15T10:37:08;10.63;85.56
68804;SHT31;55787;52.678;13.314;2022-11-15T10:39:35;11.13;81.53
68804;SHT31;55787;52.678;13.314;2022-11-15T10:42:26;11.40;81.25
68804;SHT31;55787;52.678;13.314;2022-11-15T10:44:54;11.30;82.10
68804;SHT31;55787;52.678;13.314;2022-11-15T10:47:27;11.19;81.55
68804;SHT31;55787;52.678;13.314;2022-11-15T10:50:00;11.06;82.35
68804;SHT31;55787;52.678;13.314;2022-11-15T10:52:28;10.97;82.37
68804;SHT31;55787;52.678;13.314;2022-11-15T10:55:01;10.86;83.07
68804;SHT31;55787;52.678;13.314;2022-11-15T10:57:31;10.93;82.66
68804;SHT31;55787;52.678;13.314;2022-11-15T11:03:19;11.02;81.96
68804;SHT31;55787;52.678;13.314;2022-11-15T11:06:03;10.96;82.42
68804;SHT31;55787;52.678;13.314;2022-11-15T11:08:30;11.07;81.78
68804;SHT31;55787;52.678;13.314;2022-11-15T11:11:00;11.17;80.90
68804;SHT31;55787;52.678;13.314;2022-11-15T11:21:45;11.30;80.66
68804;SHT31;55787;52.678;13.314;2022-11-15T11:27:22;11.41;81.11
68804;SHT31;55787;52.678;13.314;2022-11-15T11:35:34;11.68;79.84
68804;SHT31;55787;52.678;13.314;2022-11-15T11:41:38;11.58;80.64
68804;SHT31;55787;52.678;13.314;2022-11-15T11:49:51;11.84;78.77
68804;SHT31;55787;52.678;13.314;2022-11-15T11:52:28;11.82;79.48
68804;SHT31;55787;52.678;13.314;2022-11-15T11:55:13;11.81;79.28
68804;SHT31;55787;52.678;13.314;2022-11-15T12:00:51;12.05;79.27
68804;SHT31;55787;52.678;13.314;2022-11-15T12:03:29;12.16;78.65
68804;SHT31;55787;52.678;13.314;2022-11-15T12:06:04;12.22;78.88
68804;SHT31;55787;52.678;13.314;2022-11-15T12:08:35;12.25;79.38
68804;SHT31;55787;52.678;13.314;2022-11-15T12:13:36;12.42;78.07
68804;SHT31;55787;52.678;13.314;2022-11-15T12:18:37;12.60;77.72
68804;SHT31;55787;52.678;13.314;2022-11-15T12:21:15;12.80;76.40
68804;SHT31;55787;52.678;13.314;2022-11-15T12:24:06;12.77;76.56
68804;SHT31;55787;52.678;13.314;2022-11-15T12:26:40;12.84;76.71
68804;SHT31;55787;52.678;13.314;2022-11-15T12:29:22;13.02;75.33
68804;SHT31;55787;52.678;13.314;2022-11-15T12:31:53;13.01;75.48
68804;SHT31;55787;52.678;13.314;2022-11-15T12:36:55;12.85;76.65
68804;SHT31;55787;52.678;13.314;2022-11-15T12:44:57;12.88;76.50
68804;SHT31;55787;52.678;13.314;2022-11-15T12:47:26;12.90;77.06
68804;SHT31;55787;52.678;13.314;2022-11-15T12:49:54;13.01;76.66
68804;SHT31;55787;52.678;13.314;2022-11-15T12:52:21;13.08;75.85
68804;SHT31;55787;52.678;13.314;2022-11-15T12:54:54;13.10;76.51
68804;SHT31;55787;52.678;13.314;2022-11-15T13:03:23;13.16;75.84
68804;SHT31;55787;52.678;13.314;2022-11-15T13:05:57;13.11;76.56
68804;SHT31;55787;52.678;13.314;2022-11-15T13:08:45;13.11;76.79
68804;SHT31;55787;52.678;13.314;2022-11-15T13:11:45;13.43;74.72
68804;SHT31;55787;52.678;13.314;2022-11-15T13:17:02;13.42;74.54
68804;SHT31;55787;52.678;13.314;2022-11-15T13:19:30;13.31;75.94
68804;SHT31;55787;52.678;13.314;2022-11-15T13:21:56;13.22;76.51
68804;SHT31;55787;52.678;13.314;2022-11-15T13:24:42;13.12;77.02
68804;SHT31;55787;52.678;13.314;2022-11-15T13:27:18;13.02;77.21
68804;SHT31;55787;52.678;13.314;2022-11-15T13:29:45;12.91;77.73
68804;SHT31;55787;52.678;13.314;2022-11-15T13:32:13;12.93;77.46
68804;SHT31;55787;52.678;13.314;2022-11-15T13:34:46;12.85;77.70
68804;SHT31;55787;52.678;13.314;2022-11-15T13:39:49;12.83;78.33
68804;SHT31;55787;52.678;13.314;2022-11-15T13:42:20;12.88;77.42
68804;SHT31;55787;52.678;13.314;2022-11-15T13:44:58;12.90;77.57
68804;SHT31;55787;52.678;13.314;2022-11-15T13:47:27;12.84;77.47
68804;SHT31;55787;52.678;13.314;2022-11-15T13:49:57;12.77;78.16
68804;SHT31;55787;52.678;13.314;2022-11-15T13:52:28;12.70;78.93
68804;SHT31;55787;52.678;13.314;2022-11-15T13:55:03;12.54;79.28
68804;SHT31;55787;52.678;13.314;2022-11-15T14:00:19;12.54;78.98
68804;SHT31;55787;52.678;13.314;2022-11-15T14:02:50;12.42;79.39
68804;SHT31;55787;52.678;13.314;2022-11-15T14:05:19;12.30;80.31
68804;SHT31;55787;52.678;13.314;2022-11-15T14:07:58;12.15;80.61
68804;SHT31;55787;52.678;13.314;2022-11-15T14:10:33;12.02;80.92
68804;SHT31;55787;52.678;13.314;2022-11-15T14:13:00;11.88;81.69
68804;SHT31;55787;52.678;13.314;2022-11-15T14:15:32;11.78;82.16
68804;SHT31;55787;52.678;13.314;2022-11-15T14:17:59;11.74;82.35
68804;SHT31;55787;52.678;13.314;2022-11-15T14:20:35;11.75;82.41
68804;SHT31;55787;52.678;13.314;2022-11-15T14:23:05;11.60;82.62
68804;SHT31;55787;52.678;13.314;2022-11-15T14:25:34;11.57;82.79
68804;SHT31;55787;52.678;13.314;2022-11-15T14:30:51;11.37;83.61
68804;SHT31;55787;52.678;13.314;2022-11-15T14:33:31;11.27;83.92
68804;SHT31;55787;52.678;13.314;2022-11-15T14:36:13;11.07;84.96
68804;SHT31;55787;52.678;13.314;2022-11-15T14:38:40;10.91;85.50
68804;SHT31;55787;52.678;13.314;2022-11-15T14:41:21;10.76;86.24
68804;SHT31;55787;52.678;13.314;2022-11-15T14:43:49;10.65;86.84
68804;SHT31;55787;52.678;13.314;2022-11-15T14:46:16;10.58;86.83
68804;SHT31;55787;52.678;13.314;2022-11-15T14:48:43;10.44;87.19
68804;SHT31;55787;52.678;13.314;2022-11-15T14:51:15;10.30;87.70
68804;SHT31;55787;52.678;13.314;2022-11-15T14:53:43;10.13;88.15
68804;SHT31;55787;52.678;13.314;2022-11-15T14:56:11;10.03;88.61
68804;SHT31;55787;52.678;13.314;2022-11-15T14:58:38;9.91;89.00
68804;SHT31;55787;52.678;13.314;2022-11-15T15:03:40;9.72;89.35
68804;SHT31;55787;52.678;13.314;2022-11-15T15:06:07;9.60;89.63
68804;SHT31;55787;52.678;13.314;2022-11-15T15:08:43;9.45;89.98
68804;SHT31;55787;52.678;13.314;2022-11-15T15:11:14;9.29;90.20
68804;SHT31;55787;52.678;13.314;2022-11-15T15:13:41;9.21;90.54
68804;SHT31;55787;52.678;13.314;2022-11-15T15:16:08;9.16;91.03
68804;SHT31;55787;52.678;13.314;2022-11-15T15:18:34;9.12;91.18
68804;SHT31;55787;52.678;13.314;2022-11-15T15:21:01;9.08;91.25
68804;SHT31;55787;52.678;13.314;2022-11-15T15:23:33;9.01;91.22
68804;SHT31;55787;52.678;13.314;2022-11-15T15:26:01;8.89;91.21
68804;SHT31;55787;52.678;13.314;2022-11-15T15:28:29;8.80;91.31
68804;SHT31;55787;52.678;13.314;2022-11-15T15:31:00;8.68;91.48
68804;SHT31;55787;52.678;13.314;2022-11-15T15:33:28;8.57;91.83
68804;SHT31;55787;52.678;13.314;2022-11-15T15:35:54;8.49;92.29
68804;SHT31;55787;52.678;13.314;2022-11-15T15:38:21;8.44;92.75
68804;SHT31;55787;52.678;13.314;2022-11-15T15:40:48;8.43;92.95
68804;SHT31;55787;52.678;13.314;2022-11-15T15:43:17;8.39;93.29
68804;SHT31;55787;52.678;13.314;2022-11-15T15:45:44;8.33;93.66
68804;SHT31;55787;52.678;13.314;2022-11-15T15:48:13;8.34;93.99
68804;SHT31;55787;52.678;13.314;2022-11-15T15:50:41;8.32;94.14
68804;SHT31;55787;52.678;13.314;2022-11-15T15:53:10;8.26;94.03
68804;SHT31;55787;52.678;13.314;2022-11-15T15:55:37;8.21;94.13
68804;SHT31;55787;52.678;13.314;2022-11-15T15:58:04;8.12;94.20
68804;SHT31;55787;52.678;13.314;2022-11-15T16:00:31;8.07;94.37
68804;SHT31;55787;52.678;13.314;2022-11-15T16:03:00;8.05;94.66
68804;SHT31;55787;52.678;13.314;2022-11-15T16:05:26;8.09;95.09
68804;SHT31;55787;52.678;13.314;2022-11-15T16:07:53;8.17;95.22
68804;SHT31;55787;52.678;13.314;2022-11-15T16:10:25;8.10;95.00
68804;SHT31;55787;52.678;13.314;2022-11-15T16:12:53;8.10;95.41
68804;SHT31;55787;52.678;13.314;2022-11-15T16:15:21;8.03;94.94
68804;SHT31;55787;52.678;13.314;2022-11-15T16:17:50;7.91;94.91
68804;SHT31;55787;52.678;13.314;2022-11-15T16:23:04;7.81;95.39
68804;SHT31;55787;52.678;13.314;2022-11-15T16:30:46;7.78;95.43
68804;SHT31;55787;52.678;13.314;2022-11-15T16:33:20;7.79;95.28
68804;SHT31;55787;52.678;13.314;2022-11-15T16:35:47;7.72;95.14
68804;SHT31;55787;52.678;13.314;2022-11-15T16:38:15;7.61;95.30
68804;SHT31;55787;52.678;13.314;2022-11-15T16:40:43;7.54;95.55
68804;SHT31;55787;52.678;13.314;2022-11-15T16:43:10;7.44;95.42
68804;SHT31;55787;52.678;13.314;2022-11-15T16:45:37;7.33;95.41
68804;SHT31;55787;52.678;13.314;2022-11-15T16:48:04;7.20;95.66
68804;SHT31;55787;52.678;13.314;2022-11-15T16:50:33;7.14;95.90
68804;SHT31;55787;52.678;13.314;2022-11-15T16:53:06;7.04;96.06
68804;SHT31;55787;52.678;13.314;2022-11-15T16:55:32;6.99;96.29
68804;SHT31;55787;52.678;13.314;2022-11-15T16:57:59;6.96;96.29
68804;SHT31;55787;52.678;13.314;2022-11-15T17:00:27;6.92;96.40
68804;SHT31;55787;52.678;13.314;2022-11-15T17:02:54;6.85;96.44
68804;SHT31;55787;52.678;13.314;2022-11-15T17:05:22;6.81;96.33
68804;SHT31;55787;52.678;13.314;2022-11-15T17:07:50;6.89;96.14
68804;SHT31;55787;52.678;13.314;2022-11-15T17:10:21;6.81;96.29
68804;SHT31;55787;52.678;13.314;2022-11-15T17:12:49;6.69;96.15
68804;SHT31;55787;52.678;13.314;2022-11-15T17:15:17;6.71;96.38
68804;SHT31;55787;52.678;13.314;2022-11-15T17:17:44;6.69;96.43
68804;SHT31;55787;52.678;13.314;2022-11-15T17:20:17;6.69;96.28
68804;SHT31;55787;52.678;13.314;2022-11-15T17:22:44;6.64;96.46
68804;SHT31;55787;52.678;13.314;2022-11-15T17:25:12;6.61;96.44
68804;SHT31;55787;52.678;13.314;2022-11-15T17:27:39;6.55;96.55
68804;SHT31;55787;52.678;13.314;2022-11-15T17:30:06;6.49;96.65
68804;SHT31;55787;52.678;13.314;2022-11-15T17:32:36;6.45;96.74
68804;SHT31;55787;52.678;13.314;2022-11-15T17:35:03;6.41;96.77
68804;SHT31;55787;52.678;13.314;2022-11-15T17:37:39;6.40;96.79
68804;SHT31;55787;52.678;13.314;2022-11-15T17:40:06;6.30;96.75
68804;SHT31;55787;52.678;13.314;2022-11-15T17:42:33;6.17;96.90
68804;SHT31;55787;52.678;13.314;2022-11-15T17:45:00;6.17;97.24
68804;SHT31;55787;52.678;13.314;2022-11-15T17:47:34;6.25;97.24
68804;SHT31;55787;52.678;13.314;2022-11-15T17:50:01;6.21;97.06
68804;SHT31;55787;52.678;13.314;2022-11-15T17:52:28;6.10;97.09
68804;SHT31;55787;52.678;13.314;2022-11-15T17:54:55;6.03;97.33